sensor_id;sensor_type;location;lat;lon;timestamp;P1;durP1;ratioP1;P2;durP2;ratioP2
1839;SDS011;920;48.944;9.148;2023-12-04T00:01:12;16.40;;;10.50;;
1839;SDS011;920;48.944;9.148;2023-12-04T00:03:39;19.30;;;11.50;;
1839;SDS011;920;48.944;9.148;2023-12-04T00:06:09;15.83;;;10.50;;
1839;SDS011;920;48.944;9.148;2023-12-04T00:08:37;17.53;;;10.97;;
1839;SDS011;920;48.944;9.148;2023-12-04T00:11:04;17.80;;;11.50;;
1839;SDS011;920;48.944;9.148;2023-12-04T00:13:31;20.33;;;11.40;;
1839;SDS011;920;48.944;9.148;2023-12-04T00:15:58;18.50;;;11.13;;
1839;SDS011;920;48.944;9.148;2023-12-04T00:18:25;17.60;;;11.00;;
1839;SDS011;920;48.944;9.148;2023-12-04T00:20:52;17.83;;;11.10;;
1839;SDS011;920;48.944;9.148;2023-12-04T00:23:20;17.17;;;10.50;;
1839;SDS011;920;48.944;9.148;2023-12-04T00:25:46;19.03;;;11.73;;
1839;SDS011;920;48.944;9.148;2023-12-04T00:28:13;17.00;;;11.47;;
1839;SDS011;920;48.944;9.148;2023-12-04T00:30:40;16.67;;;10.77;;
1839;SDS011;920;48.944;9.148;2023-12-04T00:33:07;18.23;;;10.90;;
1839;SDS011;920;48.944;9.148;2023-12-04T00:35:34;18.13;;;11.27;;
1839;SDS011;920;48.944;9.148;2023-12-04T00:38:01;17.77;;;11.30;;
1839;SDS011;920;48.944;9.148;2023-12-04T00:40:29;17.50;;;11.10;;
1839;SDS011;920;48.944;9.148;2023-12-04T00:42:56;17.70;;;11.20;;
1839;SDS011;920;48.944;9.148;2023-12-04T00:45:23;16.67;;;10.60;;
1839;SDS011;920;48.944;9.148;2023-12-04T00:47:50;19.17;;;11.50;;
1839;SDS011;920;48.944;9.148;2023-12-04T00:50:16;17.00;;;11.30;;
1839;SDS011;920;48.944;9.148;2023-12-04T00:52:43;18.43;;;11.37;;
1839;SDS011;920;48.944;9.148;2023-12-04T00:55:11;16.27;;;9.90;;
1839;SDS011;920;48.944;9.148;2023-12-04T00:57:39;18.10;;;10.60;;
1839;SDS011;920;48.944;9.148;2023-12-04T01:00:07;16.17;;;10.30;;
1839;SDS011;920;48.944;9.148;2023-12-04T01:02:34;19.10;;;11.60;;
1839;SDS011;920;48.944;9.148;2023-12-04T01:05:01;18.47;;;11.27;;
1839;SDS011;920;48.944;9.148;2023-12-04T01:07:28;17.27;;;10.60;;
1839;SDS011;920;48.944;9.148;2023-12-04T01:09:55;16.50;;;10.67;;
1839;SDS011;920;48.944;9.148;2023-12-04T01:12:21;17.63;;;10.87;;
1839;SDS011;920;48.944;9.148;2023-12-04T01:14:49;14.53;;;9.10;;
1839;SDS011;920;48.944;9.148;2023-12-04T01:17:16;16.20;;;10.47;;
1839;SDS011;920;48.944;9.148;2023-12-04T01:19:43;14.67;;;9.57;;
1839;SDS011;920;48.944;9.148;2023-12-04T01:22:10;16.30;;;9.90;;
1839;SDS011;920;48.944;9.148;2023-12-04T01:24:37;14.70;;;10.07;;
1839;SDS011;920;48.944;9.148;2023-12-04T01:27:04;18.80;;;10.70;;
1839;SDS011;920;48.944;9.148;2023-12-04T01:29:30;16.60;;;10.10;;
1839;SDS011;920;48.944;9.148;2023-12-04T01:31:59;17.10;;;10.47;;
1839;SDS011;920;48.944;9.148;2023-12-04T01:34:26;15.93;;;10.50;;
1839;SDS011;920;48.944;9.148;2023-12-04T01:36:52;16.00;;;10.13;;
1839;SDS011;920;48.944;9.148;2023-12-04T01:39:19;18.00;;;11.00;;
1839;SDS011;920;48.944;9.148;2023-12-04T01:41:46;16.63;;;10.30;;
1839;SDS011;920;48.944;9.148;2023-12-04T01:44:13;14.10;;;9.27;;
1839;SDS011;920;48.944;9.148;2023-12-04T01:46:40;18.80;;;10.50;;
1839;SDS011;920;48.944;9.148;2023-12-04T01:49:08;13.70;;;8.77;;
1839;SDS011;920;48.944;9.148;2023-12-04T01:51:35;16.00;;;10.10;;
1839;SDS011;920;48.944;9.148;2023-12-04T01:54:02;16.77;;;10.23;;
1839;SDS011;920;48.944;9.148;2023-12-04T01:56:30;15.47;;;9.50;;
1839;SDS011;920;48.944;9.148;2023-12-04T01:58:56;15.83;;;9.47;;
1839;SDS011;920;48.944;9.148;2023-12-04T02:01:23;14.57;;;9.57;;
1839;SDS011;920;48.944;9.148;2023-12-04T02:03:51;17.20;;;10.27;;
1839;SDS011;920;48.944;9.148;2023-12-04T02:06:19;17.97;;;10.67;;
1839;SDS011;920;48.944;9.148;2023-12-04T02:08:46;18.57;;;11.17;;
1839;SDS011;920;48.944;9.148;2023-12-04T02:11:13;16.60;;;10.17;;
1839;SDS011;920;48.944;9.148;2023-12-04T02:13:40;20.27;;;11.23;;
1839;SDS011;920;48.944;9.148;2023-12-04T02:16:09;17.30;;;11.50;;
1839;SDS011;920;48.944;9.148;2023-12-04T02:18:36;17.53;;;10.67;;
1839;SDS011;920;48.944;9.148;2023-12-04T02:21:03;15.60;;;9.90;;
1839;SDS011;920;48.944;9.148;2023-12-04T02:23:32;15.80;;;10.33;;
1839;SDS011;920;48.944;9.148;2023-12-04T02:26:01;18.70;;;11.53;;
1839;SDS011;920;48.944;9.148;2023-12-04T02:28:32;18.07;;;11.03;;
1839;SDS011;920;48.944;9.148;2023-12-04T02:31:00;17.30;;;10.07;;
1839;SDS011;920;48.944;9.148;2023-12-04T02:33:27;19.00;;;11.50;;
1839;SDS011;920;48.944;9.148;2023-12-04T02:35:55;14.30;;;8.70;;
1839;SDS011;920;48.944;9.148;2023-12-04T02:38:22;13.13;;;8.50;;
1839;SDS011;920;48.944;9.148;2023-12-04T02:40:49;17.63;;;11.47;;
1839;SDS011;920;48.944;9.148;2023-12-04T02:43:18;17.17;;;10.47;;
1839;SDS011;920;48.944;9.148;2023-12-04T02:45:45;17.93;;;10.40;;
1839;SDS011;920;48.944;9.148;2023-12-04T02:48:11;16.10;;;9.20;;
1839;SDS011;920;48.944;9.148;2023-12-04T02:50:38;16.17;;;10.37;;
1839;SDS011;920;48.944;9.148;2023-12-04T02:53:05;14.37;;;9.97;;
1839;SDS011;920;48.944;9.148;2023-12-04T02:55:32;15.50;;;9.50;;
1839;SDS011;920;48.944;9.148;2023-12-04T02:58:01;18.27;;;10.50;;
1839;SDS011;920;48.944;9.148;2023-12-04T03:00:29;16.53;;;9.93;;
1839;SDS011;920;48.944;9.148;2023-12-04T03:02:56;16.57;;;9.97;;
1839;SDS011;920;48.944;9.148;2023-12-04T03:05:23;15.17;;;9.20;;
1839;SDS011;920;48.944;9.148;2023-12-04T03:07:49;15.97;;;10.10;;
1839;SDS011;920;48.944;9.148;2023-12-04T03:10:16;15.30;;;9.50;;
1839;SDS011;920;48.944;9.148;2023-12-04T03:12:43;17.47;;;10.03;;
1839;SDS011;920;48.944;9.148;2023-12-04T03:15:10;18.00;;;12.00;;
1839;SDS011;920;48.944;9.148;2023-12-04T03:17:39;18.13;;;10.60;;
1839;SDS011;920;48.944;9.148;2023-12-04T03:20:07;16.30;;;9.70;;
1839;SDS011;920;48.944;9.148;2023-12-04T03:22:34;15.70;;;10.37;;
1839;SDS011;920;48.944;9.148;2023-12-04T03:25:01;15.17;;;9.50;;
1839;SDS011;920;48.944;9.148;2023-12-04T03:27:28;16.60;;;10.50;;
1839;SDS011;920;48.944;9.148;2023-12-04T03:29:54;15.07;;;10.70;;
1839;SDS011;920;48.944;9.148;2023-12-04T03:32:21;17.30;;;10.00;;
1839;SDS011;920;48.944;9.148;2023-12-04T03:34:49;16.10;;;9.70;;
1839;SDS011;920;48.944;9.148;2023-12-04T03:37:16;15.33;;;9.20;;
1839;SDS011;920;48.944;9.148;2023-12-04T03:39:43;17.67;;;10.73;;
1839;SDS011;920;48.944;9.148;2023-12-04T03:42:09;16.93;;;10.77;;
1839;SDS011;920;48.944;9.148;2023-12-04T03:44:36;18.07;;;11.20;;
1839;SDS011;920;48.944;9.148;2023-12-04T03:47:03;19.30;;;12.03;;
1839;SDS011;920;48.944;9.148;2023-12-04T03:49:30;19.23;;;12.77;;
1839;SDS011;920;48.944;9.148;2023-12-04T03:51:58;18.93;;;11.43;;
1839;SDS011;920;48.944;9.148;2023-12-04T03:54:25;15.90;;;10.20;;
1839;SDS011;920;48.944;9.148;2023-12-04T03:56:51;16.70;;;10.97;;
1839;SDS011;920;48.944;9.148;2023-12-04T03:59:18;16.50;;;9.77;;
1839;SDS011;920;48.944;9.148;2023-12-04T04:01:45;15.40;;;9.80;;
1839;SDS011;920;48.944;9.148;2023-12-04T04:04:12;15.70;;;9.63;;
1839;SDS011;920;48.944;9.148;2023-12-04T04:06:39;17.63;;;11.03;;
1839;SDS011;920;48.944;9.148;2023-12-04T04:09:07;12.87;;;8.70;;
1839;SDS011;920;48.944;9.148;2023-12-04T04:11:34;15.70;;;10.37;;
1839;SDS011;920;48.944;9.148;2023-12-04T04:14:01;14.87;;;10.10;;
1839;SDS011;920;48.944;9.148;2023-12-04T04:16:28;15.10;;;10.20;;
1839;SDS011;920;48.944;9.148;2023-12-04T04:18:55;15.60;;;9.70;;
1839;SDS011;920;48.944;9.148;2023-12-04T04:21:21;14.10;;;8.20;;
1839;SDS011;920;48.944;9.148;2023-12-04T04:23:48;13.20;;;7.73;;
1839;SDS011;920;48.944;9.148;2023-12-04T04:26:17;14.37;;;8.80;;
1839;SDS011;920;48.944;9.148;2023-12-04T04:28:43;17.03;;;9.77;;
1839;SDS011;920;48.944;9.148;2023-12-04T04:31:10;15.60;;;9.90;;
1839;SDS011;920;48.944;9.148;2023-12-04T04:33:37;15.43;;;9.60;;
1839;SDS011;920;48.944;9.148;2023-12-04T04:36:04;15.60;;;10.20;;
1839;SDS011;920;48.944;9.148;2023-12-04T04:38:32;16.80;;;9.40;;
1839;SDS011;920;48.944;9.148;2023-12-04T04:40:58;14.43;;;9.00;;
1839;SDS011;920;48.944;9.148;2023-12-04T04:43:26;16.00;;;9.50;;
1839;SDS011;920;48.944;9.148;2023-12-04T04:45:53;16.80;;;9.97;;
1839;SDS011;920;48.944;9.148;2023-12-04T04:48:20;13.87;;;8.83;;
1839;SDS011;920;48.944;9.148;2023-12-04T04:50:47;16.57;;;10.23;;
1839;SDS011;920;48.944;9.148;2023-12-04T04:53:14;16.13;;;9.37;;
1839;SDS011;920;48.944;9.148;2023-12-04T04:55:41;15.10;;;9.67;;
1839;SDS011;920;48.944;9.148;2023-12-04T04:58:08;14.40;;;9.23;;
1839;SDS011;920;48.944;9.148;2023-12-04T05:00:37;14.33;;;8.77;;
1839;SDS011;920;48.944;9.148;2023-12-04T05:03:04;16.73;;;8.87;;
1839;SDS011;920;48.944;9.148;2023-12-04T05:05:31;16.13;;;9.97;;
1839;SDS011;920;48.944;9.148;2023-12-04T05:07:57;17.37;;;11.13;;
1839;SDS011;920;48.944;9.148;2023-12-04T05:10:24;16.00;;;9.53;;
1839;SDS011;920;48.944;9.148;2023-12-04T05:12:53;12.80;;;9.37;;
1839;SDS011;920;48.944;9.148;2023-12-04T05:15:20;15.13;;;9.50;;
1839;SDS011;920;48.944;9.148;2023-12-04T05:17:48;14.90;;;8.63;;
1839;SDS011;920;48.944;9.148;2023-12-04T05:20:16;13.77;;;9.23;;
1839;SDS011;920;48.944;9.148;2023-12-04T05:22:43;14.53;;;8.90;;
1839;SDS011;920;48.944;9.148;2023-12-04T05:25:10;13.37;;;8.70;;
1839;SDS011;920;48.944;9.148;2023-12-04T05:27:36;20.20;;;11.00;;
1839;SDS011;920;48.944;9.148;2023-12-04T05:30:03;17.57;;;10.87;;
1839;SDS011;920;48.944;9.148;2023-12-04T05:32:31;20.13;;;10.60;;
1839;SDS011;920;48.944;9.148;2023-12-04T05:34:59;17.60;;;10.40;;
1839;SDS011;920;48.944;9.148;2023-12-04T05:37:26;17.00;;;10.90;;
1839;SDS011;920;48.944;9.148;2023-12-04T05:39:52;16.93;;;10.37;;
1839;SDS011;920;48.944;9.148;2023-12-04T05:42:19;17.10;;;10.20;;
1839;SDS011;920;48.944;9.148;2023-12-04T05:44:46;16.87;;;9.80;;
1839;SDS011;920;48.944;9.148;2023-12-04T05:47:13;15.73;;;9.70;;
1839;SDS011;920;48.944;9.148;2023-12-04T05:49:39;16.03;;;9.93;;
1839;SDS011;920;48.944;9.148;2023-12-04T05:52:07;19.40;;;11.43;;
1839;SDS011;920;48.944;9.148;2023-12-04T05:54:34;19.37;;;10.27;;
1839;SDS011;920;48.944;9.148;2023-12-04T05:57:01;17.50;;;10.77;;
1839;SDS011;920;48.944;9.148;2023-12-04T05:59:28;19.70;;;10.70;;
1839;SDS011;920;48.944;9.148;2023-12-04T06:01:54;22.43;;;12.87;;
1839;SDS011;920;48.944;9.148;2023-12-04T06:04:21;22.57;;;12.67;;
1839;SDS011;920;48.944;9.148;2023-12-04T06:06:48;25.77;;;13.50;;
1839;SDS011;920;48.944;9.148;2023-12-04T06:09:16;19.83;;;11.93;;
1839;SDS011;920;48.944;9.148;2023-12-04T06:11:43;25.70;;;13.60;;
1839;SDS011;920;48.944;9.148;2023-12-04T06:14:09;25.00;;;14.33;;
1839;SDS011;920;48.944;9.148;2023-12-04T06:16:36;22.13;;;13.40;;
1839;SDS011;920;48.944;9.148;2023-12-04T06:19:03;30.17;;;17.30;;
1839;SDS011;920;48.944;9.148;2023-12-04T06:21:30;31.13;;;14.90;;
1839;SDS011;920;48.944;9.148;2023-12-04T06:23:57;29.53;;;15.23;;
1839;SDS011;920;48.944;9.148;2023-12-04T06:26:26;25.43;;;14.00;;
1839;SDS011;920;48.944;9.148;2023-12-04T06:28:53;23.53;;;13.60;;
1839;SDS011;920;48.944;9.148;2023-12-04T06:31:21;23.80;;;12.10;;
1839;SDS011;920;48.944;9.148;2023-12-04T06:33:48;19.53;;;9.57;;
1839;SDS011;920;48.944;9.148;2023-12-04T06:36:15;16.70;;;9.20;;
1839;SDS011;920;48.944;9.148;2023-12-04T06:38:44;17.03;;;9.73;;
1839;SDS011;920;48.944;9.148;2023-12-04T06:41:13;17.27;;;11.03;;
1839;SDS011;920;48.944;9.148;2023-12-04T06:43:42;25.53;;;11.93;;
1839;SDS011;920;48.944;9.148;2023-12-04T06:46:09;25.43;;;12.47;;
1839;SDS011;920;48.944;9.148;2023-12-04T06:48:37;26.63;;;12.23;;
1839;SDS011;920;48.944;9.148;2023-12-04T06:51:04;16.97;;;9.13;;
1839;SDS011;920;48.944;9.148;2023-12-04T06:53:32;14.97;;;8.50;;
1839;SDS011;920;48.944;9.148;2023-12-04T06:55:58;12.90;;;7.87;;
1839;SDS011;920;48.944;9.148;2023-12-04T06:58:25;20.10;;;9.20;;
1839;SDS011;920;48.944;9.148;2023-12-04T07:00:53;20.07;;;11.17;;
1839;SDS011;920;48.944;9.148;2023-12-04T07:03:20;18.33;;;9.30;;
1839;SDS011;920;48.944;9.148;2023-12-04T07:05:47;18.90;;;10.07;;
1839;SDS011;920;48.944;9.148;2023-12-04T07:08:14;21.17;;;10.63;;
1839;SDS011;920;48.944;9.148;2023-12-04T07:10:41;18.50;;;10.50;;
1839;SDS011;920;48.944;9.148;2023-12-04T07:13:07;13.07;;;8.30;;
1839;SDS011;920;48.944;9.148;2023-12-04T07:15:34;17.47;;;9.70;;
1839;SDS011;920;48.944;9.148;2023-12-04T07:18:03;22.13;;;10.93;;
1839;SDS011;920;48.944;9.148;2023-12-04T07:20:30;14.23;;;9.00;;
1839;SDS011;920;48.944;9.148;2023-12-04T07:22:56;14.97;;;9.00;;
1839;SDS011;920;48.944;9.148;2023-12-04T07:25:23;15.50;;;8.43;;
1839;SDS011;920;48.944;9.148;2023-12-04T07:27:51;17.40;;;9.10;;
1839;SDS011;920;48.944;9.148;2023-12-04T07:30:17;17.70;;;10.67;;
1839;SDS011;920;48.944;9.148;2023-12-04T07:32:46;16.17;;;10.10;;
1839;SDS011;920;48.944;9.148;2023-12-04T07:35:14;18.47;;;10.97;;
1839;SDS011;920;48.944;9.148;2023-12-04T07:37:43;15.80;;;10.70;;
1839;SDS011;920;48.944;9.148;2023-12-04T07:40:10;16.53;;;10.10;;
1839;SDS011;920;48.944;9.148;2023-12-04T07:42:37;15.23;;;8.73;;
1839;SDS011;920;48.944;9.148;2023-12-04T07:45:05;12.80;;;8.57;;
1839;SDS011;920;48.944;9.148;2023-12-04T07:47:33;14.30;;;8.50;;
1839;SDS011;920;48.944;9.148;2023-12-04T07:49:59;13.83;;;8.90;;
1839;SDS011;920;48.944;9.148;2023-12-04T07:52:27;12.80;;;8.50;;
1839;SDS011;920;48.944;9.148;2023-12-04T07:54:54;11.13;;;6.83;;
1839;SDS011;920;48.944;9.148;2023-12-04T07:57:22;13.63;;;8.40;;
1839;SDS011;920;48.944;9.148;2023-12-04T07:59:49;16.97;;;8.07;;
1839;SDS011;920;48.944;9.148;2023-12-04T08:02:15;13.53;;;8.50;;
1839;SDS011;920;48.944;9.148;2023-12-04T08:04:42;12.33;;;7.77;;
1839;SDS011;920;48.944;9.148;2023-12-04T08:07:09;11.20;;;7.30;;
1839;SDS011;920;48.944;9.148;2023-12-04T08:09:38;12.93;;;7.83;;
1839;SDS011;920;48.944;9.148;2023-12-04T08:12:06;9.47;;;6.20;;
1839;SDS011;920;48.944;9.148;2023-12-04T08:14:34;11.33;;;7.47;;
1839;SDS011;920;48.944;9.148;2023-12-04T08:17:00;11.73;;;7.80;;
1839;SDS011;920;48.944;9.148;2023-12-04T08:19:27;11.10;;;7.07;;
1839;SDS011;920;48.944;9.148;2023-12-04T08:21:54;10.83;;;6.80;;
1839;SDS011;920;48.944;9.148;2023-12-04T08:24:21;11.03;;;7.10;;
1839;SDS011;920;48.944;9.148;2023-12-04T08:26:49;12.63;;;7.83;;
1839;SDS011;920;48.944;9.148;2023-12-04T08:29:16;11.60;;;7.13;;
1839;SDS011;920;48.944;9.148;2023-12-04T08:31:43;10.40;;;7.10;;
1839;SDS011;920;48.944;9.148;2023-12-04T08:34:09;13.70;;;8.00;;
1839;SDS011;920;48.944;9.148;2023-12-04T08:36:36;12.50;;;7.50;;
1839;SDS011;920;48.944;9.148;2023-12-04T08:39:03;12.53;;;7.00;;
1839;SDS011;920;48.944;9.148;2023-12-04T08:41:30;12.67;;;7.37;;
1839;SDS011;920;48.944;9.148;2023-12-04T08:43:58;11.47;;;7.37;;
1839;SDS011;920;48.944;9.148;2023-12-04T08:46:24;11.30;;;7.23;;
1839;SDS011;920;48.944;9.148;2023-12-04T08:48:51;12.40;;;7.77;;
1839;SDS011;920;48.944;9.148;2023-12-04T08:51:18;12.33;;;7.93;;
1839;SDS011;920;48.944;9.148;2023-12-04T08:53:45;13.60;;;8.33;;
1839;SDS011;920;48.944;9.148;2023-12-04T08:56:12;17.93;;;9.73;;
1839;SDS011;920;48.944;9.148;2023-12-04T08:58:38;13.33;;;8.00;;
1839;SDS011;920;48.944;9.148;2023-12-04T09:01:07;15.57;;;8.87;;
1839;SDS011;920;48.944;9.148;2023-12-04T09:03:33;11.80;;;7.13;;
1839;SDS011;920;48.944;9.148;2023-12-04T09:06:00;11.83;;;8.53;;
1839;SDS011;920;48.944;9.148;2023-12-04T09:08:27;12.57;;;7.93;;
1839;SDS011;920;48.944;9.148;2023-12-04T09:10:53;11.67;;;8.17;;
1839;SDS011;920;48.944;9.148;2023-12-04T09:13:22;14.83;;;9.80;;
1839;SDS011;920;48.944;9.148;2023-12-04T09:15:49;14.93;;;10.13;;
1839;SDS011;920;48.944;9.148;2023-12-04T09:18:17;14.03;;;8.80;;
1839;SDS011;920;48.944;9.148;2023-12-04T09:20:43;14.40;;;9.37;;
1839;SDS011;920;48.944;9.148;2023-12-04T09:23:10;16.00;;;10.07;;
1839;SDS011;920;48.944;9.148;2023-12-04T09:25:37;15.10;;;8.17;;
1839;SDS011;920;48.944;9.148;2023-12-04T09:28:04;15.63;;;9.00;;
1839;SDS011;920;48.944;9.148;2023-12-04T09:30:30;14.30;;;8.97;;
1839;SDS011;920;48.944;9.148;2023-12-04T09:33:05;12.10;;;8.37;;
1839;SDS011;920;48.944;9.148;2023-12-04T09:35:32;13.50;;;9.33;;
1839;SDS011;920;48.944;9.148;2023-12-04T09:37:59;14.73;;;9.70;;
1839;SDS011;920;48.944;9.148;2023-12-04T09:40:25;14.90;;;10.07;;
1839;SDS011;920;48.944;9.148;2023-12-04T09:42:53;14.57;;;8.90;;
1839;SDS011;920;48.944;9.148;2023-12-04T09:45:20;16.40;;;10.70;;
1839;SDS011;920;48.944;9.148;2023-12-04T09:47:47;14.13;;;9.50;;
1839;SDS011;920;48.944;9.148;2023-12-04T09:50:15;15.43;;;10.10;;
1839;SDS011;920;48.944;9.148;2023-12-04T09:52:46;15.70;;;10.13;;
1839;SDS011;920;48.944;9.148;2023-12-04T09:55:14;15.37;;;10.17;;
1839;SDS011;920;48.944;9.148;2023-12-04T09:57:41;12.50;;;8.23;;
1839;SDS011;920;48.944;9.148;2023-12-04T10:00:09;14.50;;;9.53;;
1839;SDS011;920;48.944;9.148;2023-12-04T10:02:37;14.10;;;9.30;;
1839;SDS011;920;48.944;9.148;2023-12-04T10:05:05;15.20;;;9.63;;
1839;SDS011;920;48.944;9.148;2023-12-04T10:07:34;13.40;;;9.37;;
1839;SDS011;920;48.944;9.148;2023-12-04T10:10:01;16.10;;;8.87;;
1839;SDS011;920;48.944;9.148;2023-12-04T10:12:29;14.87;;;8.93;;
1839;SDS011;920;48.944;9.148;2023-12-04T10:15:03;14.00;;;9.57;;
1839;SDS011;920;48.944;9.148;2023-12-04T10:17:32;15.57;;;10.00;;
1839;SDS011;920;48.944;9.148;2023-12-04T10:20:04;12.77;;;9.00;;
1839;SDS011;920;48.944;9.148;2023-12-04T10:22:38;14.70;;;9.60;;
1839;SDS011;920;48.944;9.148;2023-12-04T10:25:17;13.90;;;10.00;;
1839;SDS011;920;48.944;9.148;2023-12-04T10:27:45;15.17;;;9.97;;
1839;SDS011;920;48.944;9.148;2023-12-04T10:30:21;13.70;;;10.03;;
1839;SDS011;920;48.944;9.148;2023-12-04T10:32:49;14.40;;;9.40;;
1839;SDS011;920;48.944;9.148;2023-12-04T10:35:16;14.93;;;9.30;;
1839;SDS011;920;48.944;9.148;2023-12-04T10:37:44;15.33;;;9.80;;
1839;SDS011;920;48.944;9.148;2023-12-04T10:40:11;16.30;;;10.03;;
1839;SDS011;920;48.944;9.148;2023-12-04T10:42:38;15.13;;;9.50;;
1839;SDS011;920;48.944;9.148;2023-12-04T10:45:05;15.50;;;10.37;;
1839;SDS011;920;48.944;9.148;2023-12-04T10:47:33;16.47;;;9.90;;
1839;SDS011;920;48.944;9.148;2023-12-04T10:50:00;16.83;;;9.80;;
1839;SDS011;920;48.944;9.148;2023-12-04T10:52:28;17.10;;;10.20;;
1839;SDS011;920;48.944;9.148;2023-12-04T10:54:58;17.47;;;10.57;;
1839;SDS011;920;48.944;9.148;2023-12-04T10:57:25;12.97;;;8.50;;
1839;SDS011;920;48.944;9.148;2023-12-04T10:59:56;14.23;;;9.00;;
1839;SDS011;920;48.944;9.148;2023-12-04T11:02:25;19.20;;;10.77;;
1839;SDS011;920;48.944;9.148;2023-12-04T11:04:54;14.23;;;9.27;;
1839;SDS011;920;48.944;9.148;2023-12-04T11:07:23;17.17;;;10.27;;
1839;SDS011;920;48.944;9.148;2023-12-04T11:09:52;14.40;;;9.83;;
1839;SDS011;920;48.944;9.148;2023-12-04T11:12:21;12.73;;;8.90;;
1839;SDS011;920;48.944;9.148;2023-12-04T11:14:53;14.97;;;9.47;;
1839;SDS011;920;48.944;9.148;2023-12-04T11:17:23;13.00;;;8.70;;
1839;SDS011;920;48.944;9.148;2023-12-04T11:19:54;14.30;;;9.13;;
1839;SDS011;920;48.944;9.148;2023-12-04T11:22:23;15.53;;;9.53;;
1839;SDS011;920;48.944;9.148;2023-12-04T11:24:52;13.63;;;8.70;;
1839;SDS011;920;48.944;9.148;2023-12-04T11:27:19;12.23;;;8.73;;
1839;SDS011;920;48.944;9.148;2023-12-04T11:29:48;12.70;;;9.00;;
1839;SDS011;920;48.944;9.148;2023-12-04T11:32:15;16.20;;;9.80;;
1839;SDS011;920;48.944;9.148;2023-12-04T11:34:54;14.13;;;9.30;;
1839;SDS011;920;48.944;9.148;2023-12-04T11:37:21;17.83;;;9.70;;
1839;SDS011;920;48.944;9.148;2023-12-04T11:39:49;17.00;;;9.40;;
1839;SDS011;920;48.944;9.148;2023-12-04T11:42:18;14.90;;;8.70;;
1839;SDS011;920;48.944;9.148;2023-12-04T11:44:48;15.63;;;9.30;;
1839;SDS011;920;48.944;9.148;2023-12-04T11:47:15;12.37;;;8.53;;
1839;SDS011;920;48.944;9.148;2023-12-04T11:49:42;14.67;;;8.50;;
1839;SDS011;920;48.944;9.148;2023-12-04T11:52:09;12.90;;;8.73;;
1839;SDS011;920;48.944;9.148;2023-12-04T11:57:22;14.27;;;8.67;;
1839;SDS011;920;48.944;9.148;2023-12-04T11:59:52;15.43;;;10.07;;
1839;SDS011;920;48.944;9.148;2023-12-04T12:02:38;14.60;;;9.10;;
1839;SDS011;920;48.944;9.148;2023-12-04T12:05:05;15.10;;;9.50;;
1839;SDS011;920;48.944;9.148;2023-12-04T12:07:33;13.07;;;8.83;;
1839;SDS011;920;48.944;9.148;2023-12-04T12:10:00;14.03;;;9.43;;
1839;SDS011;920;48.944;9.148;2023-12-04T12:12:27;14.23;;;8.93;;
1839;SDS011;920;48.944;9.148;2023-12-04T12:14:55;11.87;;;8.40;;
1839;SDS011;920;48.944;9.148;2023-12-04T12:17:22;12.03;;;8.40;;
1839;SDS011;920;48.944;9.148;2023-12-04T12:19:48;12.47;;;8.60;;
1839;SDS011;920;48.944;9.148;2023-12-04T12:22:15;13.20;;;8.60;;
1839;SDS011;920;48.944;9.148;2023-12-04T12:24:42;14.37;;;9.07;;
1839;SDS011;920;48.944;9.148;2023-12-04T12:27:09;11.43;;;7.90;;
1839;SDS011;920;48.944;9.148;2023-12-04T12:29:36;12.87;;;8.37;;
1839;SDS011;920;48.944;9.148;2023-12-04T12:32:04;12.27;;;7.97;;
1839;SDS011;920;48.944;9.148;2023-12-04T12:34:30;12.70;;;9.03;;
1839;SDS011;920;48.944;9.148;2023-12-04T12:37:00;12.57;;;8.60;;
1839;SDS011;920;48.944;9.148;2023-12-04T12:39:28;11.80;;;8.00;;
1839;SDS011;920;48.944;9.148;2023-12-04T12:41:55;11.70;;;7.80;;
1839;SDS011;920;48.944;9.148;2023-12-04T12:44:22;13.17;;;8.20;;
1839;SDS011;920;48.944;9.148;2023-12-04T12:46:48;14.33;;;8.47;;
1839;SDS011;920;48.944;9.148;2023-12-04T12:49:18;13.30;;;8.10;;
1839;SDS011;920;48.944;9.148;2023-12-04T12:51:45;12.30;;;7.57;;
1839;SDS011;920;48.944;9.148;2023-12-04T12:54:12;12.63;;;8.67;;
1839;SDS011;920;48.944;9.148;2023-12-04T12:56:39;12.40;;;8.20;;
1839;SDS011;920;48.944;9.148;2023-12-04T12:59:06;11.30;;;7.83;;
1839;SDS011;920;48.944;9.148;2023-12-04T13:01:33;13.97;;;8.03;;
1839;SDS011;920;48.944;9.148;2023-12-04T13:04:00;12.47;;;8.30;;
1839;SDS011;920;48.944;9.148;2023-12-04T13:06:28;13.47;;;8.30;;
1839;SDS011;920;48.944;9.148;2023-12-04T13:08:54;14.67;;;8.53;;
1839;SDS011;920;48.944;9.148;2023-12-04T13:11:21;12.87;;;8.43;;
1839;SDS011;920;48.944;9.148;2023-12-04T13:13:48;12.90;;;8.43;;
1839;SDS011;920;48.944;9.148;2023-12-04T13:16:15;13.00;;;7.90;;
1839;SDS011;920;48.944;9.148;2023-12-04T13:18:42;11.80;;;8.30;;
1839;SDS011;920;48.944;9.148;2023-12-04T13:21:08;13.47;;;8.93;;
1839;SDS011;920;48.944;9.148;2023-12-04T13:23:37;12.73;;;8.70;;
1839;SDS011;920;48.944;9.148;2023-12-04T13:26:04;11.40;;;8.13;;
1839;SDS011;920;48.944;9.148;2023-12-04T13:28:30;16.63;;;8.60;;
1839;SDS011;920;48.944;9.148;2023-12-04T13:30:57;12.50;;;8.87;;
1839;SDS011;920;48.944;9.148;2023-12-04T13:33:24;13.07;;;9.60;;
1839;SDS011;920;48.944;9.148;2023-12-04T13:35:51;15.40;;;8.90;;
1839;SDS011;920;48.944;9.148;2023-12-04T13:38:18;14.93;;;9.53;;
1839;SDS011;920;48.944;9.148;2023-12-04T13:40:46;10.93;;;8.60;;
1839;SDS011;920;48.944;9.148;2023-12-04T13:43:25;13.90;;;9.60;;
1839;SDS011;920;48.944;9.148;2023-12-04T13:46:18;17.40;;;9.30;;
1839;SDS011;920;48.944;9.148;2023-12-04T13:48:45;15.70;;;9.70;;
1839;SDS011;920;48.944;9.148;2023-12-04T13:51:12;15.87;;;9.47;;
1839;SDS011;920;48.944;9.148;2023-12-04T13:53:39;12.10;;;9.23;;
1839;SDS011;920;48.944;9.148;2023-12-04T13:56:11;14.20;;;10.23;;
1839;SDS011;920;48.944;9.148;2023-12-04T13:58:50;16.37;;;9.53;;
1839;SDS011;920;48.944;9.148;2023-12-04T14:01:21;16.43;;;10.10;;
1839;SDS011;920;48.944;9.148;2023-12-04T14:03:49;15.27;;;10.30;;
1839;SDS011;920;48.944;9.148;2023-12-04T14:06:17;14.90;;;9.60;;
1839;SDS011;920;48.944;9.148;2023-12-04T14:08:44;15.13;;;9.47;;
1839;SDS011;920;48.944;9.148;2023-12-04T14:11:12;13.30;;;9.30;;
1839;SDS011;920;48.944;9.148;2023-12-04T14:13:39;14.77;;;10.10;;
1839;SDS011;920;48.944;9.148;2023-12-04T14:16:06;13.73;;;9.30;;
1839;SDS011;920;48.944;9.148;2023-12-04T14:18:34;14.07;;;9.80;;
1839;SDS011;920;48.944;9.148;2023-12-04T14:21:00;15.57;;;9.90;;
1839;SDS011;920;48.944;9.148;2023-12-04T14:23:27;14.10;;;10.03;;
1839;SDS011;920;48.944;9.148;2023-12-04T14:25:54;17.03;;;10.33;;
1839;SDS011;920;48.944;9.148;2023-12-04T14:28:22;15.23;;;9.93;;
1839;SDS011;920;48.944;9.148;2023-12-04T14:30:50;16.20;;;10.67;;
1839;SDS011;920;48.944;9.148;2023-12-04T14:33:17;17.30;;;11.03;;
1839;SDS011;920;48.944;9.148;2023-12-04T14:35:43;19.00;;;12.53;;
1839;SDS011;920;48.944;9.148;2023-12-04T14:38:10;18.40;;;13.27;;
1839;SDS011;920;48.944;9.148;2023-12-04T14:40:37;18.23;;;11.67;;
1839;SDS011;920;48.944;9.148;2023-12-04T14:43:04;17.80;;;11.57;;
1839;SDS011;920;48.944;9.148;2023-12-04T14:45:36;16.70;;;11.23;;
1839;SDS011;920;48.944;9.148;2023-12-04T14:48:03;17.30;;;11.13;;
1839;SDS011;920;48.944;9.148;2023-12-04T14:50:32;17.63;;;11.10;;
1839;SDS011;920;48.944;9.148;2023-12-04T14:52:59;17.43;;;11.47;;
1839;SDS011;920;48.944;9.148;2023-12-04T14:55:40;16.00;;;10.70;;
1839;SDS011;920;48.944;9.148;2023-12-04T14:58:24;15.83;;;10.27;;
1839;SDS011;920;48.944;9.148;2023-12-04T15:01:10;16.93;;;10.33;;
1839;SDS011;920;48.944;9.148;2023-12-04T15:04:13;16.83;;;11.43;;
1839;SDS011;920;48.944;9.148;2023-12-04T15:07:08;15.73;;;10.17;;
1839;SDS011;920;48.944;9.148;2023-12-04T15:09:51;17.20;;;11.00;;
1839;SDS011;920;48.944;9.148;2023-12-04T15:12:31;17.97;;;10.90;;
1839;SDS011;920;48.944;9.148;2023-12-04T15:15:18;16.03;;;10.23;;
1839;SDS011;920;48.944;9.148;2023-12-04T15:18:01;14.70;;;10.23;;